Time;durP1;ratioP1;P1;durP2;ratioP2;P2;SDS_P1;SDS_P2;PMS_P1;PMS_P2;Temp;Humidity;BMP_temperature;BMP_pressure;BME280_temperature;BME280_humidity;BME280_pressure;Samples;Min_cycle;Max_cycle;Signal;HPM_P1;HPM_P2
2024/04/06 00:02:15;;;;;;;7.17;2.17;;;12.80;99.90;;;;;;5046650;28;20317;-87
2024/04/06 00:04:42;;;;;;;5.50;2.30;;;12.80;99.90;;;;;;5029100;28;20239;-88
2024/04/06 00:07:09;;;;;;;8.73;2.80;;;12.80;99.90;;;;;;5033447;28;20665;-88
2024/04/06 00:09:36;;;;;;;4.63;2.10;;;12.80;99.90;;;;;;5032947;28;20231;-88
2024/04/06 00:12:04;;;;;;;4.53;2.27;;;12.80;99.90;;;;;;5032776;28;20308;-87
2024/04/06 00:14:30;;;;;;;11.47;2.67;;;12.80;99.90;;;;;;5043294;28;20248;-88
2024/04/06 00:16:57;;;;;;;7.63;2.30;;;12.80;99.90;;;;;;5037094;28;20228;-87
2024/04/06 00:19:23;;;;;;;5.10;2.30;;;12.80;99.90;;;;;;5034032;28;20228;-88
2024/04/06 00:21:51;;;;;;;4.87;2.00;;;12.80;99.90;;;;;;5048277;28;20284;-87
2024/04/06 00:24:17;;;;;;;2.77;2.20;;;12.90;99.90;;;;;;5041758;28;20277;-87
2024/04/06 00:26:45;;;;;;;6.20;2.50;;;12.90;99.90;;;;;;5032362;28;20627;-88
2024/04/06 00:29:10;;;;;;;7.00;2.47;;;12.90;99.90;;;;;;5041351;28;20237;-87
2024/04/06 00:31:37;;;;;;;6.80;2.20;;;12.90;99.90;;;;;;5041499;28;20236;-88
2024/04/06 00:34:03;;;;;;;6.20;2.47;;;13.00;99.90;;;;;;5033198;28;20678;-87
2024/04/06 00:36:30;;;;;;;6.47;2.93;;;13.00;99.90;;;;;;5041430;28;20286;-87
2024/04/06 00:38:58;;;;;;;6.67;2.53;;;13.00;99.90;;;;;;5046742;28;20627;-88
2024/04/06 00:41:26;;;;;;;6.70;2.17;;;13.00;99.90;;;;;;5028710;28;20206;-87
2024/04/06 00:43:51;;;;;;;7.00;2.53;;;13.00;99.90;;;;;;5024939;28;20254;-87
2024/04/06 00:46:18;;;;;;;6.73;2.17;;;13.10;99.90;;;;;;5033340;28;20680;-87
2024/04/06 00:48:45;;;;;;;4.57;2.40;;;13.10;99.90;;;;;;5033667;28;20316;-86
2024/04/06 00:51:13;;;;;;;6.97;2.27;;;13.10;99.90;;;;;;5027925;28;20273;-87
2024/04/06 00:53:39;;;;;;;7.70;2.60;;;13.10;99.90;;;;;;5031756;28;20329;-87
2024/04/06 00:56:08;;;;;;;6.70;2.20;;;13.10;99.90;;;;;;5031701;28;20199;-87
2024/04/06 00:58:35;;;;;;;6.80;2.17;;;13.10;99.90;;;;;;5026988;28;20219;-87
2024/04/06 01:01:02;;;;;;;6.87;2.40;;;13.10;99.90;;;;;;5033805;28;20222;-87
2024/04/06 01:03:28;;;;;;;4.73;2.00;;;13.10;99.90;;;;;;5037826;28;20225;-87
2024/04/06 01:05:55;;;;;;;4.80;1.87;;;13.10;99.90;;;;;;5031028;28;20194;-86
2024/04/06 01:08:21;;;;;;;11.23;2.40;;;13.00;99.90;;;;;;5036201;28;20197;-86
2024/04/06 01:10:48;;;;;;;5.20;1.90;;;13.10;99.90;;;;;;5044939;28;20313;-87
2024/04/06 01:13:15;;;;;;;4.60;2.20;;;13.10;99.90;;;;;;5043724;28;20308;-87
2024/04/06 01:15:42;;;;;;;7.83;2.17;;;13.00;99.90;;;;;;5036580;28;20204;-88
2024/04/06 01:18:08;;;;;;;5.43;2.37;;;13.00;99.90;;;;;;5032338;28;20309;-87
2024/04/06 01:20:41;;;;;;;4.23;2.20;;;13.00;99.90;;;;;;5033229;28;20711;-87
2024/04/06 01:23:07;;;;;;;9.63;2.33;;;13.00;99.90;;;;;;5034346;28;20269;-87
2024/04/06 01:25:36;;;;;;;5.57;2.43;;;13.00;99.90;;;;;;5037072;28;20199;-87
2024/04/06 01:28:02;;;;;;;6.13;2.30;;;13.00;99.90;;;;;;5041382;28;20688;-87
2024/04/06 01:30:29;;;;;;;8.63;2.40;;;13.00;99.90;;;;;;5047041;28;20240;-87
2024/04/06 01:32:54;;;;;;;4.87;2.23;;;13.00;99.90;;;;;;5033180;28;20312;-87
2024/04/06 01:35:21;;;;;;;8.33;2.50;;;13.00;99.90;;;;;;5034888;28;20672;-87
2024/04/06 01:37:48;;;;;;;6.37;2.30;;;13.00;99.90;;;;;;5037495;28;20258;-87
2024/04/06 01:40:15;;;;;;;6.90;2.47;;;13.00;99.90;;;;;;5034223;28;21302;-87
2024/04/06 01:42:42;;;;;;;3.43;1.90;;;13.00;99.90;;;;;;5042375;28;20320;-87
2024/04/06 01:45:09;;;;;;;5.27;2.13;;;13.00;99.90;;;;;;5041593;28;20198;-87
2024/04/06 01:47:35;;;;;;;4.23;1.70;;;13.00;99.90;;;;;;5043508;28;20627;-87
2024/04/06 01:50:04;;;;;;;6.93;2.33;;;13.10;99.90;;;;;;5029645;28;20293;-87
2024/04/06 01:52:29;;;;;;;6.90;2.40;;;13.00;99.90;;;;;;5032583;28;20309;-87
2024/04/06 01:54:58;;;;;;;9.77;2.63;;;13.00;99.90;;;;;;5041631;28;20298;-86
2024/04/06 01:57:24;;;;;;;4.67;2.57;;;13.10;99.90;;;;;;5031907;28;20305;-87
2024/04/06 01:59:52;;;;;;;6.47;2.33;;;13.10;99.90;;;;;;5042007;28;20297;-86
2024/04/06 03:05:33;;;;;;;6.03;2.43;;;13.10;99.90;;;;;;4973228;28;20212;-84
2024/04/06 03:07:58;;;;;;;4.43;2.70;;;13.10;99.90;;;;;;4973542;28;20291;-85
2024/04/06 03:10:25;;;;;;;5.10;2.77;;;13.10;99.90;;;;;;4973314;28;20820;-84
2024/04/06 03:12:51;;;;;;;6.63;2.53;;;13.10;99.90;;;;;;4973943;28;20320;-85
2024/04/06 03:17:43;;;;;;;5.53;2.43;;;13.00;99.90;;;;;;4967496;23;20224;-87
2024/04/06 03:20:10;;;;;;;6.73;2.40;;;13.00;99.90;;;;;;4971272;28;20296;-87
2024/04/06 03:22:38;;;;;;;3.87;2.50;;;13.00;99.90;;;;;;4968801;28;20204;-86
2024/04/06 03:25:04;;;;;;;5.90;2.80;;;13.00;99.90;;;;;;4970871;28;20291;-87
2024/04/06 03:27:31;;;;;;;2.50;2.27;;;12.90;99.90;;;;;;4973439;28;20213;-87
2024/04/06 03:29:57;;;;;;;9.13;3.00;;;12.90;99.90;;;;;;4969997;28;20215;-86
2024/04/06 03:32:24;;;;;;;3.83;2.57;;;12.90;99.90;;;;;;4970545;28;20283;-88
2024/04/06 03:34:50;;;;;;;5.53;2.33;;;12.90;99.90;;;;;;4968833;28;20297;-87
2024/04/06 03:37:16;;;;;;;3.93;2.80;;;12.90;99.90;;;;;;4962901;28;20299;-86
2024/04/06 03:39:45;;;;;;;4.53;3.10;;;12.90;99.90;;;;;;4972549;28;20204;-86
2024/04/06 03:42:12;;;;;;;8.23;3.40;;;12.90;99.90;;;;;;4977861;28;20285;-87
2024/04/06 03:44:39;;;;;;;4.20;2.77;;;12.90;99.90;;;;;;4972235;28;20216;-87
2024/04/06 03:47:06;;;;;;;3.73;2.47;;;12.90;99.90;;;;;;4971784;28;20259;-87
2024/04/06 03:49:32;;;;;;;5.27;2.60;;;12.90;99.90;;;;;;4965429;28;20840;-86
2024/04/06 03:51:59;;;;;;;5.40;2.73;;;12.90;99.90;;;;;;4969170;28;20223;-87
2024/04/06 03:54:25;;;;;;;2.97;2.50;;;12.90;99.90;;;;;;4963150;28;20354;-87
2024/04/06 03:56:53;;;;;;;7.20;2.63;;;12.90;99.90;;;;;;4968549;28;20315;-86
2024/04/06 03:59:19;;;;;;;5.63;2.37;;;12.90;99.90;;;;;;4961586;28;20256;-86
2024/04/06 04:01:46;;;;;;;9.10;3.13;;;12.90;99.90;;;;;;4970574;28;20243;-87
2024/04/06 04:04:12;;;;;;;7.60;2.70;;;12.90;99.90;;;;;;4970421;28;20283;-86
2024/04/06 04:06:39;;;;;;;6.93;3.47;;;12.90;99.90;;;;;;4966372;28;20258;-87
2024/04/06 04:09:06;;;;;;;4.40;2.60;;;12.90;99.90;;;;;;4966538;28;20720;-87
2024/04/06 04:11:33;;;;;;;5.43;2.73;;;12.90;99.90;;;;;;4962918;28;20551;-86
2024/04/06 04:14:00;;;;;;;4.40;2.70;;;12.90;99.90;;;;;;4963106;28;20299;-86
2024/04/06 04:16:27;;;;;;;4.37;2.97;;;12.90;99.90;;;;;;4963568;28;20229;-86
2024/04/06 04:18:53;;;;;;;6.43;2.97;;;12.90;99.90;;;;;;4960381;28;20277;-87
2024/04/06 04:21:19;;;;;;;5.67;2.60;;;12.90;99.90;;;;;;4971613;28;20201;-87
2024/04/06 04:23:45;;;;;;;6.37;2.87;;;12.90;99.90;;;;;;4965890;28;20231;-86
2024/04/06 04:26:12;;;;;;;8.07;3.20;;;12.90;99.90;;;;;;4958067;28;20709;-86
2024/04/06 04:28:38;;;;;;;4.50;2.97;;;12.90;99.90;;;;;;4972493;28;20240;-86
2024/04/06 04:31:15;;;;;;;5.57;2.80;;;12.90;99.90;;;;;;4970483;28;20221;-87
2024/04/06 04:33:41;;;;;;;4.83;2.57;;;13.00;99.90;;;;;;4969085;28;20280;-87
2024/04/06 04:36:08;;;;;;;6.30;3.40;;;12.90;99.90;;;;;;4974791;28;20328;-87
2024/04/06 04:38:35;;;;;;;6.10;3.00;;;12.90;99.90;;;;;;4980393;28;20304;-86
2024/04/06 04:41:02;;;;;;;8.10;3.40;;;12.90;99.90;;;;;;4973772;28;20234;-87
2024/04/06 04:43:28;;;;;;;5.67;3.20;;;12.90;99.90;;;;;;4975000;28;20205;-87
2024/04/06 04:45:55;;;;;;;6.83;3.03;;;12.80;99.90;;;;;;4969944;28;20232;-87
2024/04/06 04:48:23;;;;;;;10.60;4.00;;;12.90;99.90;;;;;;4983145;28;20291;-87
2024/04/06 04:50:50;;;;;;;5.17;3.73;;;12.90;99.90;;;;;;4978214;28;20204;-87
2024/04/06 04:53:15;;;;;;;6.20;4.07;;;12.90;99.90;;;;;;4979428;28;20300;-87
2024/04/06 04:55:43;;;;;;;6.00;3.90;;;12.90;99.90;;;;;;4982860;28;20285;-87
2024/04/06 04:58:09;;;;;;;6.43;4.00;;;12.90;99.90;;;;;;4976797;28;20224;-87
2024/04/06 05:00:36;;;;;;;8.10;4.23;;;12.90;99.90;;;;;;4980964;28;20589;-87
2024/04/06 05:03:02;;;;;;;6.37;4.00;;;12.90;99.90;;;;;;4980665;28;20247;-88
2024/04/06 05:05:31;;;;;;;6.33;4.10;;;12.90;99.90;;;;;;4980138;28;20201;-87
2024/04/06 05:07:57;;;;;;;5.00;4.07;;;12.90;99.90;;;;;;4967388;28;20574;-86
2024/04/06 05:10:24;;;;;;;5.30;4.60;;;12.80;99.90;;;;;;4971931;28;20197;-86
2024/04/06 05:12:49;;;;;;;10.30;4.53;;;12.80;99.90;;;;;;4971057;28;20699;-87
2024/04/06 05:15:16;;;;;;;5.93;4.57;;;12.80;99.90;;;;;;4969796;28;20279;-87
2024/04/06 05:17:42;;;;;;;6.30;4.20;;;12.80;99.90;;;;;;4967964;28;20316;-86
2024/04/06 05:20:09;;;;;;;5.17;4.17;;;12.90;99.90;;;;;;4973931;28;20287;-87
2024/04/06 05:22:37;;;;;;;5.37;4.43;;;12.90;99.90;;;;;;4972138;28;20208;-87
2024/04/06 05:25:04;;;;;;;5.47;3.93;;;12.90;99.90;;;;;;4972537;28;20767;-86
2024/04/06 05:27:30;;;;;;;5.57;3.73;;;12.90;99.90;;;;;;4964645;28;20315;-87
2024/04/06 05:29:57;;;;;;;5.87;4.07;;;12.90;99.90;;;;;;4974996;28;20279;-87
2024/04/06 05:32:23;;;;;;;8.13;4.77;;;12.80;99.90;;;;;;4974029;28;20283;-86
2024/04/06 05:34:49;;;;;;;7.43;4.40;;;12.90;99.90;;;;;;4970983;28;20292;-86
2024/04/06 05:37:15;;;;;;;5.50;4.37;;;12.90;99.90;;;;;;4974485;28;20303;-87
2024/04/06 05:39:43;;;;;;;6.53;4.27;;;12.90;99.90;;;;;;4970261;28;20661;-87
2024/04/06 05:42:09;;;;;;;6.63;4.67;;;12.90;99.90;;;;;;4970200;28;20268;-86
2024/04/06 05:44:36;;;;;;;8.03;4.93;;;13.00;99.90;;;;;;4969062;28;20296;-87
2024/04/06 05:47:02;;;;;;;7.13;4.67;;;13.00;99.90;;;;;;4970668;28;20369;-86
2024/04/06 05:49:30;;;;;;;5.50;4.30;;;13.10;99.90;;;;;;4970656;28;20199;-87
2024/04/06 05:51:56;;;;;;;8.43;5.00;;;13.10;99.90;;;;;;4973333;28;20212;-87
2024/04/06 05:54:22;;;;;;;6.83;4.70;;;13.10;99.90;;;;;;4973430;28;20200;-86
2024/04/06 05:56:53;;;;;;;8.50;4.73;;;13.20;99.90;;;;;;4968635;28;20255;-90
2024/04/06 05:59:21;;;;;;;5.53;3.87;;;13.10;99.90;;;;;;4967391;28;20280;-88
2024/04/06 06:01:47;;;;;;;4.80;3.87;;;13.10;99.90;;;;;;4966139;28;20658;-89
2024/04/06 06:04:14;;;;;;;5.77;4.60;;;13.20;99.90;;;;;;4960963;28;20340;-89
2024/04/06 06:06:40;;;;;;;6.07;4.53;;;13.20;99.90;;;;;;4967391;28;20272;-89
2024/04/06 06:09:07;;;;;;;6.07;4.87;;;13.20;99.90;;;;;;4977796;28;20204;-89
2024/04/06 06:11:33;;;;;;;5.77;4.63;;;13.20;99.90;;;;;;4966035;28;20211;-87
2024/04/06 06:14:01;;;;;;;5.23;4.70;;;13.20;99.90;;;;;;4967413;28;20681;-89
2024/04/06 06:16:27;;;;;;;5.40;4.90;;;13.10;99.90;;;;;;4973549;28;20224;-89
2024/04/06 06:18:54;;;;;;;6.87;5.23;;;13.20;99.90;;;;;;4967796;28;20245;-88
2024/04/06 06:21:21;;;;;;;5.87;4.93;;;13.20;99.90;;;;;;4972302;28;20243;-89
2024/04/06 06:23:51;;;;;;;6.07;5.50;;;13.20;99.90;;;;;;4974972;28;20662;-88
2024/04/06 06:26:17;;;;;;;6.83;5.60;;;13.20;99.90;;;;;;4967044;28;20312;-90
2024/04/06 06:28:45;;;;;;;6.37;5.47;;;13.30;99.90;;;;;;4976360;28;20288;-89
2024/04/06 06:31:12;;;;;;;6.67;5.80;;;13.30;99.90;;;;;;4976502;28;20201;-90
2024/04/06 06:33:39;;;;;;;7.63;5.43;;;13.40;99.90;;;;;;4971082;28;20224;-89
2024/04/06 06:36:06;;;;;;;5.13;4.63;;;13.50;99.90;;;;;;4965011;28;20225;-90
2024/04/06 06:38:33;;;;;;;7.13;4.90;;;13.50;99.90;;;;;;4968879;28;20283;-89
2024/04/06 06:40:59;;;;;;;8.17;5.07;;;13.60;99.90;;;;;;4973339;28;20201;-90
2024/04/06 06:43:26;;;;;;;8.57;5.10;;;13.60;99.90;;;;;;4973686;28;20252;-90
2024/04/06 06:45:52;;;;;;;6.60;5.17;;;13.60;99.90;;;;;;4970196;28;20274;-89
2024/04/06 06:48:20;;;;;;;6.37;4.90;;;13.60;99.90;;;;;;4965067;28;20677;-89
2024/04/06 06:50:49;;;;;;;7.97;5.30;;;13.60;99.90;;;;;;4967022;28;20209;-89
2024/04/06 06:53:16;;;;;;;8.73;5.00;;;13.60;99.90;;;;;;4960171;28;20200;-89
2024/04/06 06:55:42;;;;;;;5.20;4.70;;;13.70;99.90;;;;;;4961374;28;20217;-90
2024/04/06 06:58:08;;;;;;;6.80;5.13;;;13.70;99.90;;;;;;4964574;28;20472;-89
2024/04/06 07:00:36;;;;;;;6.00;4.50;;;13.70;99.90;;;;;;4969649;28;20303;-89
2024/04/06 07:03:03;;;;;;;8.87;5.23;;;13.80;99.90;;;;;;4965809;28;20205;-90
2024/04/06 07:05:30;;;;;;;6.50;5.00;;;13.80;99.90;;;;;;4969763;28;20292;-90
2024/04/06 07:07:59;;;;;;;7.73;5.30;;;13.90;99.90;;;;;;4971942;28;20215;-89
2024/04/06 07:10:25;;;;;;;8.90;5.33;;;13.90;99.90;;;;;;4969751;28;20232;-90
2024/04/06 07:12:52;;;;;;;6.97;4.77;;;14.10;99.90;;;;;;4968510;28;20229;-90
2024/04/06 07:15:18;;;;;;;7.43;5.53;;;14.10;99.90;;;;;;4972703;28;20235;-89
2024/04/06 07:17:45;;;;;;;5.70;5.17;;;14.20;99.90;;;;;;4972858;28;20655;-89
2024/04/06 07:20:11;;;;;;;6.40;5.70;;;14.20;99.90;;;;;;4968282;28;20201;-89
2024/04/06 07:22:41;;;;;;;6.17;5.30;;;14.30;99.90;;;;;;4981122;28;20210;-89
2024/04/06 07:25:07;;;;;;;5.63;5.00;;;14.30;99.90;;;;;;4976483;28;20561;-89
2024/04/06 07:27:34;;;;;;;8.57;5.57;;;14.40;99.90;;;;;;4975137;28;20299;-89
2024/04/06 07:29:59;;;;;;;6.53;5.17;;;14.50;99.90;;;;;;4979204;28;20662;-89
2024/04/06 07:32:26;;;;;;;6.47;4.73;;;14.50;99.90;;;;;;4972870;28;20212;-89
2024/04/06 07:34:52;;;;;;;8.03;5.27;;;14.60;99.90;;;;;;4973271;28;20228;-90
2024/04/06 07:37:19;;;;;;;6.00;5.27;;;14.70;99.90;;;;;;4970463;28;20255;-90
2024/04/06 07:39:47;;;;;;;6.00;5.00;;;14.80;99.90;;;;;;4971135;28;20590;-90
2024/04/06 07:42:14;;;;;;;5.70;4.40;;;14.90;99.90;;;;;;4967416;28;20212;-90
2024/04/06 07:44:39;;;;;;;4.73;4.10;;;14.90;99.90;;;;;;4967211;28;20201;-89
2024/04/06 07:47:06;;;;;;;7.43;4.63;;;15.00;99.90;;;;;;4969918;28;20220;-90
2024/04/06 07:49:32;;;;;;;9.23;5.50;;;15.10;99.90;;;;;;4967902;28;20240;-90
2024/04/06 07:51:59;;;;;;;8.27;4.60;;;15.20;99.90;;;;;;4963171;28;20240;-88
2024/04/06 07:54:25;;;;;;;8.77;5.03;;;15.20;99.90;;;;;;4968310;28;20268;-89
2024/04/06 08:00:16;;;;;;;6.10;4.57;;;15.60;99.90;;;;;;4963264;28;20307;-88
2024/04/06 08:02:43;;;;;;;5.83;4.43;;;15.80;99.90;;;;;;4972212;28;20248;-89
2024/04/06 08:05:10;;;;;;;6.30;4.37;;;15.80;99.90;;;;;;4968588;28;20263;-89
2024/04/06 08:07:37;;;;;;;6.00;4.13;;;15.90;99.90;;;;;;4966893;28;20729;-89
2024/04/06 08:10:14;;;;;;;7.23;4.40;;;16.00;99.90;;;;;;4972144;28;20205;-90
2024/04/06 08:12:42;;;;;;;5.03;3.80;;;16.10;99.90;;;;;;4970877;28;20199;-90
2024/04/06 08:15:08;;;;;;;6.10;4.17;;;16.20;99.90;;;;;;4977507;28;20212;-89
2024/04/06 08:17:38;;;;;;;4.80;3.80;;;16.20;99.90;;;;;;4970279;28;20224;-90
2024/04/06 08:20:06;;;;;;;5.03;4.00;;;16.30;99.90;;;;;;4973522;28;20250;-89
2024/04/06 08:22:33;;;;;;;5.13;3.87;;;16.40;99.90;;;;;;4969340;28;20202;-91
2024/04/06 08:24:59;;;;;;;5.40;3.63;;;16.50;99.90;;;;;;4969650;28;20200;-88
2024/04/06 08:27:26;;;;;;;5.90;3.60;;;16.50;99.90;;;;;;4966790;28;20216;-89
2024/04/06 08:29:52;;;;;;;5.67;3.57;;;16.50;99.90;;;;;;4963896;28;20201;-89
2024/04/06 08:32:19;;;;;;;4.20;3.63;;;16.50;99.90;;;;;;4974929;28;20243;-88
2024/04/06 08:34:46;;;;;;;6.03;3.73;;;16.50;99.90;;;;;;4961052;28;20209;-88
2024/04/06 08:37:13;;;;;;;5.00;3.70;;;16.50;99.90;;;;;;4968220;28;20227;-89
2024/04/06 08:39:39;;;;;;;4.90;4.07;;;16.50;99.90;;;;;;4972515;28;20262;-89
2024/04/06 08:42:06;;;;;;;7.27;4.20;;;16.60;99.90;;;;;;4974009;28;20244;-89
2024/04/06 08:44:39;;;;;;;5.47;3.83;;;16.70;99.90;;;;;;4975885;28;20267;-90
2024/04/06 08:47:06;;;;;;;7.97;3.80;;;16.80;99.90;;;;;;4973116;28;20213;-89
2024/04/06 08:49:33;;;;;;;4.33;3.87;;;16.80;99.90;;;;;;4973190;28;20839;-89
2024/04/06 08:52:02;;;;;;;4.27;3.10;;;16.90;99.90;;;;;;4970256;28;20211;-89
2024/04/06 08:54:29;;;;;;;4.67;3.43;;;16.90;99.90;;;;;;4973476;28;20220;-89
2024/04/06 08:56:58;;;;;;;4.93;3.17;;;17.00;99.90;;;;;;4970896;28;20312;-89
2024/04/06 08:59:23;;;;;;;4.97;3.57;;;17.10;99.90;;;;;;4972333;28;20227;-89
2024/04/06 09:01:50;;;;;;;5.03;3.10;;;17.10;99.90;;;;;;4971267;28;20261;-89
2024/04/06 09:04:16;;;;;;;4.90;3.13;;;17.20;99.90;;;;;;4970808;28;20211;-89
2024/04/06 09:06:44;;;;;;;5.10;3.20;;;17.30;99.90;;;;;;4965683;28;20222;-88
2024/04/06 09:09:12;;;;;;;5.33;3.17;;;17.40;99.90;;;;;;4978747;28;20241;-89
2024/04/06 09:11:39;;;;;;;3.93;2.83;;;17.50;99.90;;;;;;4975033;28;20214;-88
2024/04/06 09:14:06;;;;;;;4.20;3.10;;;17.50;99.90;;;;;;4975452;28;20237;-89
2024/04/06 12:18:23;;;;;;;2.20;0.90;;;24.40;99.90;;;;;;4907838;29;20601;-86
2024/04/06 12:20:49;;;;;;;1.47;0.80;;;24.50;99.90;;;;;;4911546;29;20228;-86
2024/04/06 12:23:16;;;;;;;1.30;0.77;;;24.60;99.90;;;;;;4913780;29;20218;-89
2024/04/06 12:25:42;;;;;;;1.57;1.00;;;24.60;99.90;;;;;;4904746;29;20567;-86
2024/04/06 12:28:09;;;;;;;2.83;1.00;;;24.60;99.90;;;;;;4895883;29;20272;-85
2024/04/06 12:30:35;;;;;;;2.13;1.00;;;24.60;99.90;;;;;;4895022;29;20225;-87
2024/04/06 13:28:14;;;;;;;0.83;0.70;;;24.10;99.90;;;;;;1657270;23;20624;-86
2024/04/06 13:30:40;;;;;;;1.83;0.90;;;24.10;99.90;;;;;;4934053;29;20573;-85
2024/04/06 13:33:07;;;;;;;1.10;0.90;;;24.10;99.90;;;;;;4924255;29;20268;-86
2024/04/06 13:35:45;;;;;;;1.67;0.80;;;24.20;99.90;;;;;;4923841;29;20487;-86
2024/04/06 13:38:12;;;;;;;1.53;0.83;;;24.40;99.90;;;;;;4924927;29;20216;-86
2024/04/06 13:40:38;;;;;;;1.47;0.80;;;24.60;99.90;;;;;;5210573;23;20245;-88
2024/04/06 13:43:04;;;;;;;1.50;0.80;;;24.80;99.90;;;;;;4972617;28;20206;-88
2024/04/06 13:45:32;;;;;;;3.37;0.90;;;25.00;99.90;;;;;;4969315;28;20305;-88
2024/04/06 13:47:59;;;;;;;2.23;1.10;;;25.20;99.90;;;;;;4964849;28;20653;-88
2024/04/06 13:50:25;;;;;;;1.37;0.93;;;25.40;99.90;;;;;;4966055;28;20250;-88
2024/04/06 13:52:52;;;;;;;1.37;0.73;;;25.50;99.90;;;;;;4964100;28;20203;-87
2024/04/06 13:55:18;;;;;;;2.80;1.03;;;25.70;99.90;;;;;;4967069;28;20210;-88
2024/04/06 13:57:51;;;;;;;1.57;0.90;;;25.90;99.90;;;;;;4962697;28;20649;-88
2024/04/06 14:00:17;;;;;;;1.87;1.10;;;26.30;99.90;;;;;;4956703;28;20241;-88
2024/04/06 14:02:45;;;;;;;2.07;0.90;;;26.30;99.90;;;;;;4959787;28;20270;-88
2024/04/06 14:05:11;;;;;;;1.50;0.87;;;26.10;99.90;;;;;;4966537;28;20211;-88
2024/04/06 14:07:37;;;;;;;0.80;0.80;;;26.40;99.90;;;;;;4968448;28;20292;-88
2024/04/06 14:10:05;;;;;;;1.77;0.90;;;26.60;99.90;;;;;;4963049;28;20303;-88
2024/04/06 14:12:33;;;;;;;1.43;0.70;;;26.90;99.90;;;;;;4964725;28;20220;-87
2024/04/06 14:14:59;;;;;;;2.60;0.90;;;26.80;99.90;;;;;;4956312;28;20209;-88
2024/04/06 14:17:26;;;;;;;1.30;0.80;;;26.60;99.90;;;;;;4963076;28;20201;-88
2024/04/06 14:19:53;;;;;;;4.50;0.97;;;26.40;99.90;;;;;;4957979;28;20683;-87
2024/04/06 14:22:20;;;;;;;1.63;1.07;;;26.10;99.90;;;;;;4960746;28;20209;-88
2024/04/06 14:24:46;;;;;;;2.60;0.90;;;25.90;99.90;;;;;;4959918;28;20206;-88
2024/04/06 14:27:13;;;;;;;2.30;0.87;;;25.80;99.90;;;;;;4961650;28;20680;-88
2024/04/06 14:29:39;;;;;;;1.83;1.03;;;25.70;99.90;;;;;;4955140;28;20679;-87
2024/04/06 14:32:06;;;;;;;2.33;1.20;;;25.50;99.90;;;;;;4966969;28;20288;-87
2024/04/06 14:34:32;;;;;;;5.17;1.50;;;25.30;99.90;;;;;;4959161;28;20231;-87
2024/04/06 14:37:00;;;;;;;8.17;2.23;;;25.20;99.90;;;;;;4969134;28;20262;-88
2024/04/06 14:39:26;;;;;;;1.80;0.90;;;25.00;99.90;;;;;;4960492;28;20232;-87
2024/04/06 14:41:53;;;;;;;2.77;0.97;;;25.00;99.90;;;;;;4962799;28;20302;-88
2024/04/06 14:44:19;;;;;;;1.03;0.80;;;25.00;99.90;;;;;;4961593;28;20677;-88
2024/04/06 14:46:46;;;;;;;0.90;0.90;;;24.90;99.90;;;;;;4966682;28;20204;-87
2024/04/06 14:49:12;;;;;;;1.80;0.90;;;25.00;99.90;;;;;;4957200;28;20290;-87
2024/04/06 14:51:39;;;;;;;3.43;1.10;;;25.00;99.90;;;;;;4960575;28;20202;-88
2024/04/06 14:54:06;;;;;;;2.80;1.10;;;24.90;99.90;;;;;;4962230;28;20300;-87
2024/04/06 14:56:33;;;;;;;2.13;1.30;;;24.70;99.90;;;;;;4959366;28;20288;-88
2024/04/06 14:59:00;;;;;;;1.13;0.80;;;24.60;99.90;;;;;;4961614;28;20212;-88
2024/04/06 15:01:26;;;;;;;3.27;1.10;;;24.40;99.90;;;;;;4961565;28;20298;-88
2024/04/06 15:03:52;;;;;;;3.33;1.07;;;24.20;99.90;;;;;;4960639;28;20227;-88
2024/04/06 15:06:18;;;;;;;2.03;1.07;;;24.10;99.90;;;;;;4960614;28;20197;-88
2024/04/06 15:08:47;;;;;;;2.23;1.00;;;24.10;99.90;;;;;;4956912;28;20762;-88
2024/04/06 15:11:14;;;;;;;4.03;1.10;;;24.10;99.90;;;;;;4956490;28;20222;-88
2024/04/06 15:13:41;;;;;;;1.97;1.00;;;24.10;99.90;;;;;;4955993;28;20212;-88
2024/04/06 15:16:07;;;;;;;1.47;0.90;;;24.30;99.90;;;;;;4956433;28;20293;-88
2024/04/06 15:18:34;;;;;;;1.50;0.87;;;24.60;99.90;;;;;;4955927;28;20312;-87
2024/04/06 15:21:02;;;;;;;1.87;1.10;;;25.00;99.90;;;;;;4959970;28;20229;-88
2024/04/06 15:23:29;;;;;;;2.10;0.90;;;25.40;99.90;;;;;;4962700;28;20404;-88
2024/04/06 15:25:55;;;;;;;2.20;1.07;;;26.10;99.90;;;;;;4962845;28;20300;-88
2024/04/06 15:28:23;;;;;;;3.93;1.17;;;26.40;99.90;;;;;;4960822;28;20634;-88
2024/04/06 15:30:49;;;;;;;2.97;1.07;;;26.40;99.90;;;;;;4961211;28;20319;-88
2024/04/06 15:33:16;;;;;;;1.40;1.10;;;26.50;99.90;;;;;;4964279;28;20640;-89
2024/04/06 15:35:42;;;;;;;4.10;1.00;;;26.50;99.90;;;;;;4960053;28;20620;-88
2024/04/06 15:38:09;;;;;;;1.60;1.23;;;26.50;99.90;;;;;;4967416;28;20288;-89
2024/04/06 15:40:37;;;;;;;1.87;1.10;;;26.50;99.90;;;;;;4961896;28;20317;-88
2024/04/06 15:43:04;;;;;;;1.50;1.00;;;26.60;99.90;;;;;;4964902;28;20693;-88
2024/04/06 15:45:31;;;;;;;3.73;1.10;;;26.90;99.90;;;;;;4960932;28;20286;-88
2024/04/06 15:47:59;;;;;;;2.13;0.80;;;27.00;99.90;;;;;;4960912;28;20692;-88
2024/04/06 15:50:26;;;;;;;3.00;1.13;;;27.00;99.90;;;;;;4960434;28;20657;-88
2024/04/06 15:52:54;;;;;;;3.80;0.83;;;27.00;99.90;;;;;;4961149;28;20249;-88
2024/04/06 15:55:20;;;;;;;4.73;1.23;;;26.70;99.90;;;;;;4968327;28;20208;-88
2024/04/06 15:57:46;;;;;;;1.27;1.00;;;26.40;99.90;;;;;;4956964;28;20251;-89
2024/04/06 16:00:13;;;;;;;3.67;0.90;;;26.10;99.90;;;;;;4960953;28;20225;-88
2024/04/06 16:02:41;;;;;;;2.53;1.00;;;25.90;99.90;;;;;;4958920;28;20192;-89
2024/04/06 16:05:07;;;;;;;1.40;1.10;;;25.70;99.90;;;;;;4959723;28;20213;-88
2024/04/06 16:07:34;;;;;;;3.87;1.23;;;25.60;99.90;;;;;;4958166;28;20717;-89
2024/04/06 16:10:00;;;;;;;1.67;1.10;;;25.50;99.90;;;;;;4966317;28;20220;-89
2024/04/06 16:12:27;;;;;;;2.63;0.90;;;25.30;99.90;;;;;;4962611;28;20644;-89
2024/04/06 16:14:52;;;;;;;1.77;1.00;;;25.30;99.90;;;;;;4958651;28;20252;-89
2024/04/06 16:17:19;;;;;;;1.43;0.97;;;25.30;99.90;;;;;;4959423;28;20201;-89
2024/04/06 16:19:47;;;;;;;1.80;1.10;;;25.20;99.90;;;;;;4961740;28;20238;-88
2024/04/06 16:22:14;;;;;;;1.77;1.20;;;25.10;99.90;;;;;;4966527;28;20259;-89
2024/04/06 16:24:40;;;;;;;2.23;0.90;;;25.20;99.90;;;;;;4964256;28;20754;-89
2024/04/06 16:27:07;;;;;;;1.97;1.20;;;25.10;99.90;;;;;;4966638;28;20240;-89
2024/04/06 16:29:33;;;;;;;2.43;1.00;;;25.00;99.90;;;;;;4966794;28;20307;-89
2024/04/06 16:32:00;;;;;;;1.63;1.00;;;24.90;99.90;;;;;;4959424;28;20308;-89
2024/04/06 16:34:28;;;;;;;2.40;1.13;;;24.70;99.90;;;;;;4957474;28;20205;-89
2024/04/06 16:36:58;;;;;;;1.93;1.30;;;24.60;99.90;;;;;;4958135;28;20226;-89
2024/04/06 16:39:23;;;;;;;2.80;1.10;;;24.40;99.90;;;;;;4960682;28;20224;-89
2024/04/06 16:41:50;;;;;;;2.50;1.10;;;24.40;99.90;;;;;;4960601;28;20566;-89
2024/04/06 16:44:18;;;;;;;1.43;1.30;;;24.30;99.90;;;;;;4964885;28;20212;-88
2024/04/06 16:46:44;;;;;;;2.77;1.17;;;24.10;99.90;;;;;;4960961;28;20223;-89
2024/04/06 16:49:10;;;;;;;3.40;1.17;;;24.10;99.90;;;;;;4961748;28;20297;-89
2024/04/06 16:51:37;;;;;;;4.57;1.07;;;24.00;99.90;;;;;;4958628;28;20204;-88
2024/04/06 16:54:05;;;;;;;2.77;1.10;;;24.00;99.90;;;;;;4957707;28;20208;-88
2024/04/06 16:56:32;;;;;;;3.07;1.10;;;24.00;99.90;;;;;;4961132;28;20204;-89
2024/04/06 16:58:57;;;;;;;4.43;0.80;;;24.00;99.90;;;;;;4960764;28;20313;-89
2024/04/06 17:01:24;;;;;;;4.60;1.27;;;23.90;99.90;;;;;;4965507;28;20305;-88
2024/04/06 17:03:50;;;;;;;1.80;1.40;;;23.90;99.90;;;;;;4957648;28;20657;-89
2024/04/06 17:06:17;;;;;;;1.97;1.33;;;23.90;99.90;;;;;;4968122;28;20282;-88
2024/04/06 17:08:43;;;;;;;3.00;1.23;;;23.90;99.90;;;;;;4961430;28;20394;-89
2024/04/06 17:11:12;;;;;;;1.87;1.10;;;23.80;99.90;;;;;;4966748;28;20204;-89
2024/04/06 17:13:39;;;;;;;1.37;1.10;;;23.70;99.90;;;;;;4967967;28;20306;-89
2024/04/06 17:16:05;;;;;;;2.27;1.40;;;23.70;99.90;;;;;;4965965;28;20198;-89
2024/04/06 17:18:32;;;;;;;2.40;1.10;;;23.70;99.90;;;;;;4966704;28;20647;-89
2024/04/06 17:20:58;;;;;;;2.53;1.13;;;23.60;99.90;;;;;;4947810;28;20668;-90
2024/04/06 17:23:27;;;;;;;2.13;1.20;;;23.60;99.90;;;;;;4966126;28;20460;-89
2024/04/06 17:25:53;;;;;;;3.00;1.30;;;23.60;99.90;;;;;;4970220;28;20588;-90
2024/04/06 17:28:22;;;;;;;4.60;1.60;;;23.60;99.90;;;;;;4962816;28;20602;-89
2024/04/06 17:30:47;;;;;;;1.93;1.07;;;23.50;99.90;;;;;;4968411;28;20256;-89
2024/04/06 17:33:14;;;;;;;3.97;1.63;;;23.50;99.90;;;;;;4970458;28;20300;-90
2024/04/06 17:35:40;;;;;;;2.17;1.30;;;23.50;99.90;;;;;;4960718;28;20201;-88
2024/04/06 17:38:08;;;;;;;2.53;1.33;;;23.50;99.90;;;;;;4963795;28;20741;-90
2024/04/06 17:40:34;;;;;;;3.37;1.57;;;23.40;99.90;;;;;;4965918;28;20234;-90
2024/04/06 17:43:00;;;;;;;3.83;1.50;;;23.40;99.90;;;;;;4965156;28;20956;-89
2024/04/06 17:45:28;;;;;;;2.60;1.30;;;23.30;99.90;;;;;;4968450;28;20297;-90
2024/04/06 17:47:55;;;;;;;2.83;1.10;;;23.40;99.90;;;;;;4966734;28;20212;-89
2024/04/06 17:50:20;;;;;;;3.23;1.30;;;23.30;99.90;;;;;;4962667;28;20323;-89